createdAt,value
2022-11-16T00:00:02.922Z,8.21
2022-11-16T00:02:32.865Z,8.09
2022-11-16T00:04:59.611Z,8.40
2022-11-16T00:07:26.331Z,8.30
2022-11-16T00:09:53.007Z,8.28
2022-11-16T00:12:19.655Z,8.21
2022-11-16T00:14:46.287Z,8.31
2022-11-16T00:17:12.896Z,8.22
2022-11-16T00:19:39.603Z,8.08
2022-11-16T00:22:06.754Z,7.83
2022-11-16T00:24:33.454Z,7.81
2022-11-16T00:27:00.103Z,8.04
2022-11-16T00:29:27.310Z,8.17
2022-11-16T00:31:54.368Z,8.21
2022-11-16T00:34:22.357Z,8.14
2022-11-16T00:36:49.538Z,8.06
2022-11-16T00:39:17.474Z,8.07
2022-11-16T00:41:44.877Z,8.21
2022-11-16T00:44:12.179Z,7.75
2022-11-16T00:46:39.071Z,7.75
2022-11-16T00:49:06.416Z,7.97
2022-11-16T00:51:34.622Z,8.00
2022-11-16T00:54:01.960Z,7.75
2022-11-16T00:56:28.558Z,7.87
2022-11-16T00:58:55.187Z,7.81
2022-11-16T01:01:21.886Z,7.74
2022-11-16T01:03:48.695Z,8.07
2022-11-16T01:06:16.138Z,7.93
2022-11-16T01:08:44.264Z,8.03
2022-11-16T01:11:32.677Z,7.96
2022-11-16T01:14:01.663Z,8.11
2022-11-16T01:16:28.576Z,7.99
2022-11-16T01:18:55.747Z,8.21
2022-11-16T01:21:23.873Z,8.04
2022-11-16T01:23:51.421Z,7.98
2022-11-16T01:26:18.603Z,8.12
2022-11-16T01:28:45.538Z,8.09
2022-11-16T01:31:12.467Z,8.26
2022-11-16T01:33:39.405Z,8.10
2022-11-16T01:36:15.174Z,8.22
2022-11-16T01:38:44.192Z,8.27
2022-11-16T01:41:19.698Z,8.23
2022-11-16T01:43:57.334Z,8.13
2022-11-16T01:46:25.101Z,8.33
2022-11-16T01:48:58.430Z,8.40
2022-11-16T01:51:25.694Z,8.03
2022-11-16T01:53:52.731Z,7.97
2022-11-16T01:56:20.959Z,8.13
2022-11-16T01:58:47.864Z,8.15
2022-11-16T02:01:14.559Z,8.15
2022-11-16T02:03:41.404Z,8.07
2022-11-16T02:06:16.827Z,8.05
2022-11-16T02:09:46.980Z,8.11
2022-11-16T02:12:40.228Z,8.12
2022-11-16T02:16:04.076Z,8.04
2022-11-16T02:18:33.495Z,7.80
2022-11-16T02:21:35.488Z,7.93
2022-11-16T02:24:11.135Z,7.88
2022-11-16T02:26:49.706Z,7.77
2022-11-16T02:29:25.810Z,7.79
2022-11-16T02:32:14.811Z,7.95
2022-11-16T02:34:46.704Z,8.13
2022-11-16T02:37:17.980Z,7.97
2022-11-16T02:39:45.560Z,7.97
2022-11-16T02:42:19.343Z,8.14
2022-11-16T02:44:49.587Z,8.09
2022-11-16T02:47:21.811Z,8.15
2022-11-16T02:50:11.565Z,8.13
2022-11-16T02:52:38.911Z,7.96
2022-11-16T02:55:06.971Z,7.99
2022-11-16T02:57:53.578Z,7.86
2022-11-16T03:00:23.946Z,7.87
2022-11-16T03:03:01.990Z,7.82
2022-11-16T03:05:35.657Z,7.81
2022-11-16T03:08:25.294Z,7.65
2022-11-16T03:11:17.976Z,7.72
2022-11-16T03:13:46.922Z,7.72
2022-11-16T03:16:20.712Z,7.84
2022-11-16T03:18:50.114Z,7.83
2022-11-16T03:21:37.242Z,7.82
2022-11-16T03:24:05.081Z,7.75
2022-11-16T03:26:42.541Z,7.97
2022-11-16T03:29:21.459Z,7.70
2022-11-16T03:31:53.379Z,7.77
2022-11-16T03:34:25.591Z,7.68
2022-11-16T03:36:54.972Z,7.71
2022-11-16T03:39:25.943Z,7.71
2022-11-16T03:41:54.613Z,7.75
2022-11-16T03:44:22.160Z,7.99
2022-11-16T03:46:48.968Z,7.61
2022-11-16T03:49:15.592Z,7.94
2022-11-16T03:51:42.539Z,7.94
2022-11-16T03:54:09.141Z,7.51
2022-11-16T03:56:35.786Z,7.61
2022-11-16T03:59:02.472Z,7.94
2022-11-16T04:01:29.336Z,7.67
2022-11-16T04:03:56.014Z,7.84
2022-11-16T04:06:41.487Z,7.57
2022-11-16T04:09:29.589Z,7.77
2022-11-16T04:12:18.223Z,7.91
2022-11-16T04:15:18.275Z,7.58
2022-11-16T04:18:03.335Z,7.48
2022-11-16T04:20:48.557Z,7.21
2022-11-16T04:23:35.337Z,7.38
2022-11-16T04:26:02.180Z,7.54
2022-11-16T04:28:31.945Z,7.48
2022-11-16T04:31:20.378Z,7.49
2022-11-16T04:34:05.662Z,7.47
2022-11-16T04:36:50.859Z,7.53
2022-11-16T04:39:17.451Z,7.47
2022-11-16T04:42:02.763Z,7.44
2022-11-16T04:44:49.362Z,7.41
2022-11-16T04:47:16.234Z,7.36
2022-11-16T04:49:42.851Z,7.45
2022-11-16T04:52:09.483Z,7.42
2022-11-16T04:54:36.142Z,7.31
2022-11-16T04:57:02.795Z,7.25
2022-11-16T04:59:29.555Z,7.23
2022-11-16T05:02:11.112Z,7.21
2022-11-16T05:04:42.540Z,7.21
2022-11-16T05:07:11.945Z,7.28
2022-11-16T05:09:44.820Z,7.13
2022-11-16T05:12:16.539Z,7.23
2022-11-16T05:14:44.069Z,7.33
2022-11-16T05:17:11.489Z,7.28
2022-11-16T05:19:56.684Z,7.10
2022-11-16T05:22:23.924Z,7.20
2022-11-16T05:24:50.694Z,7.32
2022-11-16T05:27:19.369Z,7.31
2022-11-16T05:29:46.493Z,7.21
2022-11-16T05:32:13.561Z,7.07
2022-11-16T05:34:40.355Z,7.39
2022-11-16T05:37:07.296Z,7.40
2022-11-16T05:39:34.017Z,7.40
2022-11-16T05:42:00.644Z,7.35
2022-11-16T05:44:27.254Z,7.05
2022-11-16T05:46:55.170Z,7.08
2022-11-16T05:49:22.332Z,7.07
2022-11-16T05:51:49.475Z,7.16
2022-11-16T05:54:19.173Z,7.14
2022-11-16T05:56:47.095Z,7.19
2022-11-16T05:59:16.626Z,7.21
2022-11-16T06:01:43.682Z,7.02
2022-11-16T06:04:11.015Z,7.23
2022-11-16T06:06:37.929Z,6.86
2022-11-16T06:09:05.385Z,7.26
2022-11-16T06:11:35.737Z,7.16
2022-11-16T06:14:03.321Z,7.06
2022-11-16T06:16:30.201Z,7.10
2022-11-16T06:18:57.183Z,7.06
2022-11-16T06:21:23.857Z,7.08
2022-11-16T06:23:50.425Z,7.11
2022-11-16T06:26:17.090Z,7.19
2022-11-16T06:28:43.726Z,7.29
2022-11-16T06:31:10.487Z,7.20
2022-11-16T06:33:37.085Z,7.21
2022-11-16T06:36:03.863Z,7.43
2022-11-16T06:38:30.662Z,7.37
2022-11-16T06:40:59.247Z,7.61
2022-11-16T06:43:26.220Z,7.66
2022-11-16T06:45:57.667Z,7.69
2022-11-16T06:48:25.106Z,7.58
2022-11-16T06:50:52.255Z,7.62
2022-11-16T06:53:20.350Z,7.54
2022-11-16T06:55:49.169Z,7.39
2022-11-16T06:58:16.194Z,7.57
2022-11-16T07:00:42.900Z,7.46
2022-11-16T07:03:09.750Z,7.43
2022-11-16T07:05:40.916Z,7.50
2022-11-16T07:08:07.804Z,7.60
2022-11-16T07:10:34.395Z,7.63
2022-11-16T07:13:04.880Z,7.66
2022-11-16T07:15:32.685Z,7.69
2022-11-16T07:18:07.040Z,7.37
2022-11-16T07:20:35.019Z,7.49
2022-11-16T07:23:03.126Z,7.70
2022-11-16T07:25:31.519Z,7.70
2022-11-16T07:27:58.386Z,7.80
2022-11-16T07:30:25.636Z,7.81
2022-11-16T07:32:57.140Z,7.81
2022-11-16T07:35:23.821Z,7.78
2022-11-16T07:37:50.417Z,7.82
2022-11-16T07:40:17.154Z,7.63
2022-11-16T07:42:45.322Z,7.67
2022-11-16T07:45:12.192Z,7.74
2022-11-16T07:47:38.843Z,7.77
2022-11-16T07:50:06.549Z,7.71
2022-11-16T07:52:33.126Z,7.77
2022-11-16T07:54:59.808Z,7.74
2022-11-16T07:57:26.724Z,7.94
2022-11-16T07:59:53.299Z,7.70
2022-11-16T08:02:19.882Z,7.85
2022-11-16T08:04:47.134Z,7.87
2022-11-16T08:07:14.474Z,7.97
2022-11-16T08:09:41.218Z,7.98
2022-11-16T08:12:07.979Z,8.09
2022-11-16T08:14:34.575Z,8.15
2022-11-16T08:17:03.513Z,8.13
2022-11-16T08:19:30.419Z,8.09
2022-11-16T08:21:57.142Z,8.14
2022-11-16T08:24:24.018Z,8.13
2022-11-16T08:26:50.723Z,8.09
2022-11-16T08:29:17.554Z,8.14
2022-11-16T08:31:45.340Z,8.11
2022-11-16T08:34:12.324Z,8.24
2022-11-16T08:36:39.093Z,8.12
2022-11-16T08:39:05.729Z,8.27
2022-11-16T08:41:35.726Z,8.02
2022-11-16T08:44:02.471Z,8.15
2022-11-16T08:46:29.268Z,7.91
2022-11-16T08:48:57.199Z,8.36
2022-11-16T08:51:24.996Z,8.60
2022-11-16T08:53:56.630Z,8.57
2022-11-16T08:56:23.662Z,8.38
2022-11-16T08:58:58.113Z,8.54
2022-11-16T09:01:28.055Z,8.45
2022-11-16T09:03:55.398Z,8.75
2022-11-16T09:06:25.031Z,8.76
2022-11-16T09:08:51.684Z,9.01
2022-11-16T09:11:20.975Z,9.06
2022-11-16T09:13:49.678Z,9.19
2022-11-16T09:16:17.638Z,9.26
2022-11-16T09:18:48.086Z,9.28
2022-11-16T09:21:27.950Z,9.54
2022-11-16T09:23:55.511Z,9.92
2022-11-16T09:26:23.423Z,10.03
2022-11-16T09:28:58.303Z,9.83
2022-11-16T09:31:31.166Z,9.79
2022-11-16T09:33:58.925Z,10.06
2022-11-16T09:36:27.503Z,10.08
2022-11-16T09:39:23.639Z,10.28
2022-11-16T09:41:41.395Z,10.58
2022-11-16T09:44:33.256Z,10.69
2022-11-16T09:47:01.246Z,10.85
2022-11-16T09:49:38.060Z,10.93
2022-11-16T09:52:45.212Z,11.27
2022-11-16T09:55:17.877Z,11.18
2022-11-16T09:57:46.218Z,10.89
2022-11-16T10:00:18.062Z,10.98
2022-11-16T10:02:50.219Z,11.16
2022-11-16T10:05:55.478Z,10.95
2022-11-16T10:08:47.919Z,11.03
2022-11-16T10:12:08.709Z,11.14
2022-11-16T10:14:54.187Z,11.67
2022-11-16T10:17:42.384Z,11.56
2022-11-16T10:20:30.274Z,11.51
2022-11-16T10:23:20.626Z,11.52
2022-11-16T10:26:05.286Z,11.52
2022-11-16T10:28:54.659Z,11.85
2022-11-16T10:31:38.031Z,11.60
2022-11-16T10:34:06.916Z,11.44
2022-11-16T10:36:37.543Z,11.92
2022-11-16T10:39:13.146Z,11.45
2022-11-16T10:41:39.650Z,12.17
2022-11-16T10:44:16.007Z,12.40
2022-11-16T10:46:52.581Z,12.40
2022-11-16T10:49:22.590Z,12.47
2022-11-16T10:51:49.359Z,12.54
2022-11-16T10:54:18.222Z,11.58
2022-11-16T10:56:48.561Z,12.07
2022-11-16T10:59:19.223Z,11.72
2022-11-16T11:01:50.735Z,12.21
2022-11-16T11:04:24.631Z,12.24
2022-11-16T11:06:56.834Z,12.05
2022-11-16T11:09:29.231Z,12.53
2022-11-16T11:12:23.290Z,12.40
2022-11-16T11:15:13.408Z,12.60
2022-11-16T11:17:42.407Z,12.91
2022-11-16T11:20:14.849Z,12.92
2022-11-16T11:23:00.089Z,12.99
2022-11-16T11:25:36.544Z,12.92
2022-11-16T11:28:20.279Z,12.61
2022-11-16T11:31:05.191Z,11.96
2022-11-16T11:33:39.651Z,12.35
2022-11-16T11:36:18.698Z,11.68
2022-11-16T11:38:56.111Z,11.85
2022-11-16T11:41:23.815Z,12.03
2022-11-16T11:44:05.099Z,12.01
2022-11-16T11:47:18.628Z,11.82
2022-11-16T11:49:49.851Z,11.95
2022-11-16T11:52:27.695Z,12.15
2022-11-16T11:54:55.825Z,12.43
2022-11-16T11:57:24.843Z,12.70
2022-11-16T11:59:54.391Z,12.63
2022-11-16T12:02:33.422Z,12.15
2022-11-16T12:05:21.975Z,12.51
2022-11-16T12:08:02.978Z,13.14
2022-11-16T12:10:51.272Z,13.55
2022-11-16T12:13:39.131Z,13.95
2022-11-16T12:16:14.454Z,13.92
2022-11-16T12:19:08.797Z,13.23
2022-11-16T12:21:57.791Z,14.16
2022-11-16T12:24:42.659Z,14.37
2022-11-16T12:27:18.119Z,13.36
2022-11-16T12:30:02.954Z,13.32
2022-11-16T12:32:41.464Z,13.57
2022-11-16T12:35:40.338Z,13.56
2022-11-16T12:38:43.947Z,14.34
2022-11-16T12:41:28.885Z,14.91
2022-11-16T12:44:08.047Z,14.36
2022-11-16T12:46:37.332Z,14.94
2022-11-16T12:49:53.472Z,14.89
2022-11-16T12:52:41.902Z,17.20
2022-11-16T12:55:32.579Z,17.27
2022-11-16T12:58:16.970Z,15.36
2022-11-16T13:00:51.083Z,14.64
2022-11-16T13:03:35.778Z,16.20
2022-11-16T13:06:07.633Z,16.84
2022-11-16T13:08:34.138Z,19.07
2022-11-16T13:11:09.298Z,17.77
2022-11-16T13:13:37.487Z,17.07
2022-11-16T13:16:06.616Z,18.82
2022-11-16T13:18:38.479Z,17.16
2022-11-16T13:21:17.590Z,16.30
2022-11-16T13:24:02.616Z,16.06
2022-11-16T13:26:36.991Z,17.60
2022-11-16T13:29:22.102Z,18.51
2022-11-16T13:31:58.195Z,19.95
2022-11-16T13:34:29.094Z,19.73
2022-11-16T13:36:55.756Z,19.03
2022-11-16T13:40:03.371Z,19.49
2022-11-16T13:42:43.739Z,18.52
2022-11-16T13:45:20.525Z,19.59
2022-11-16T13:47:57.986Z,17.55
2022-11-16T13:50:37.307Z,16.31
2022-11-16T13:56:04.699Z,15.04
2022-11-16T13:58:32.998Z,12.64
2022-11-16T14:01:10.781Z,14.48
2022-11-16T14:03:39.747Z,16.59
2022-11-16T14:06:28.935Z,17.11
2022-11-16T14:08:57.478Z,20.09
2022-11-16T14:11:38.754Z,18.87
2022-11-16T14:14:05.780Z,17.90
2022-11-16T14:16:44.782Z,13.93
2022-11-16T14:19:49.081Z,13.33
2022-11-16T14:22:54.255Z,12.65
2022-11-16T14:25:37.950Z,12.33
2022-11-16T14:28:16.276Z,11.91
2022-11-16T14:31:05.656Z,11.18
2022-11-16T14:33:35.310Z,10.78
2022-11-16T14:36:04.536Z,10.76
2022-11-16T14:38:37.948Z,11.00
2022-11-16T14:41:20.039Z,11.28
2022-11-16T14:43:50.532Z,10.99
2022-11-16T14:46:26.174Z,10.48
2022-11-16T14:48:55.959Z,10.32
2022-11-16T14:51:43.635Z,10.20
2022-11-16T14:54:15.740Z,10.31
2022-11-16T14:57:02.160Z,10.32
2022-11-16T14:59:30.259Z,10.33
2022-11-16T15:02:01.020Z,10.15
2022-11-16T15:04:27.845Z,10.03
2022-11-16T15:06:58.272Z,10.16
2022-11-16T15:09:39.995Z,10.05
2022-11-16T15:12:33.443Z,10.20
2022-11-16T15:15:07.507Z,10.02
2022-11-16T15:17:34.963Z,10.05
2022-11-16T15:20:14.143Z,10.04
2022-11-16T15:22:43.697Z,10.04
2022-11-16T15:25:42.806Z,9.82
2022-11-16T15:28:19.292Z,9.80
2022-11-16T15:30:49.690Z,9.69
2022-11-16T15:33:24.142Z,9.86
2022-11-16T15:35:50.935Z,9.73
2022-11-16T15:38:24.733Z,9.67
2022-11-16T15:40:57.388Z,9.68
2022-11-16T15:43:26.438Z,9.52
2022-11-16T15:45:53.788Z,9.44
2022-11-16T15:48:25.376Z,9.49
2022-11-16T15:51:00.169Z,9.44
2022-11-16T15:53:33.859Z,9.57
2022-11-16T15:56:01.567Z,9.38
2022-11-16T15:58:31.785Z,9.39
2022-11-16T16:00:59.314Z,9.27
2022-11-16T16:03:31.959Z,9.17
2022-11-16T16:05:58.746Z,9.10
2022-11-16T16:08:34.287Z,8.94
2022-11-16T16:11:03.619Z,8.95
2022-11-16T16:13:34.215Z,8.84
2022-11-16T16:16:13.369Z,8.70
2022-11-16T16:18:44.950Z,8.55
2022-11-16T16:21:14.117Z,8.70
2022-11-16T16:23:53.586Z,8.80
2022-11-16T16:26:21.403Z,8.32
2022-11-16T16:28:48.368Z,8.42
2022-11-16T16:31:17.535Z,8.36
2022-11-16T16:33:44.178Z,8.43
2022-11-16T16:36:13.379Z,8.15
2022-11-16T16:38:40.080Z,8.07
2022-11-16T16:41:07.217Z,8.23
2022-11-16T16:43:34.440Z,8.11
2022-11-16T16:46:03.306Z,7.99
2022-11-16T16:48:30.122Z,7.95
2022-11-16T16:50:56.843Z,8.01
2022-11-16T16:53:23.527Z,8.17
2022-11-16T16:55:50.258Z,7.75
2022-11-16T16:58:16.939Z,7.85
2022-11-16T17:00:43.686Z,7.80
2022-11-16T17:03:10.567Z,7.78
2022-11-16T17:05:37.559Z,7.61
2022-11-16T17:08:04.296Z,7.59
2022-11-16T17:10:30.932Z,7.47
2022-11-16T17:12:58.060Z,7.39
2022-11-16T17:15:24.975Z,7.41
2022-11-16T17:17:51.658Z,7.38
2022-11-16T17:20:18.264Z,7.36
2022-11-16T17:22:45.868Z,7.52
2022-11-16T17:25:12.539Z,7.45
2022-11-16T17:27:39.146Z,7.37
2022-11-16T17:30:07.235Z,7.12
2022-11-16T17:32:33.904Z,7.30
2022-11-16T17:35:00.544Z,6.94
2022-11-16T17:37:27.123Z,6.88
2022-11-16T17:39:53.718Z,6.94
2022-11-16T17:42:20.349Z,7.00
2022-11-16T17:44:47.067Z,7.12
2022-11-16T17:47:13.833Z,6.79
2022-11-16T17:49:40.489Z,6.67
2022-11-16T17:52:07.318Z,6.66
2022-11-16T17:54:33.972Z,6.59
2022-11-16T17:57:00.614Z,6.40
2022-11-16T17:59:29.739Z,6.30
2022-11-16T18:01:58.001Z,6.38
2022-11-16T18:04:25.240Z,6.40
2022-11-16T18:06:51.909Z,6.47
2022-11-16T18:09:18.853Z,6.38
2022-11-16T18:11:45.685Z,6.25
2022-11-16T18:14:12.323Z,6.33
2022-11-16T18:16:42.288Z,6.41
2022-11-16T18:19:10.074Z,6.20
2022-11-16T18:21:41.164Z,6.14
2022-11-16T18:24:08.265Z,6.13
2022-11-16T18:26:35.019Z,5.91
2022-11-16T18:29:01.663Z,5.93
2022-11-16T18:31:29.735Z,5.91
2022-11-16T18:33:56.345Z,5.85
2022-11-16T18:36:23.050Z,5.87
2022-11-16T18:38:50.082Z,5.71
2022-11-16T18:41:21.036Z,5.87
2022-11-16T18:43:50.269Z,5.80
2022-11-16T18:46:18.900Z,5.80
2022-11-16T18:48:46.774Z,5.50
2022-11-16T18:51:14.951Z,5.86
2022-11-16T18:53:41.797Z,5.50
2022-11-16T18:56:09.314Z,5.54
2022-11-16T18:58:49.673Z,5.56
2022-11-16T19:01:18.083Z,5.54
2022-11-16T19:03:45.079Z,5.39
2022-11-16T19:06:12.474Z,5.38
2022-11-16T19:08:41.211Z,5.31
2022-11-16T19:11:12.610Z,5.38
2022-11-16T19:13:40.606Z,5.33
2022-11-16T19:16:08.787Z,5.33
2022-11-16T19:18:36.560Z,5.38
2022-11-16T19:21:04.376Z,5.30
2022-11-16T19:23:35.829Z,5.46
2022-11-16T19:26:04.825Z,5.30
2022-11-16T19:28:42.210Z,5.40
2022-11-16T19:31:14.877Z,5.26
2022-11-16T19:33:42.871Z,5.19
2022-11-16T19:36:14.618Z,5.21
2022-11-16T19:38:42.570Z,4.95
2022-11-16T19:41:11.102Z,5.10
2022-11-16T19:43:38.250Z,5.43
2022-11-16T19:46:10.777Z,5.17
2022-11-16T19:48:38.000Z,5.12
2022-11-16T19:51:17.162Z,5.13
2022-11-16T19:53:43.904Z,5.23
2022-11-16T19:56:13.024Z,5.29
2022-11-16T19:58:39.837Z,5.10
2022-11-16T20:01:14.145Z,5.14
2022-11-16T20:03:42.288Z,5.42
2022-11-16T20:06:21.026Z,5.39
2022-11-16T20:08:50.849Z,5.39
2022-11-16T20:11:20.632Z,5.45
2022-11-16T20:13:49.665Z,5.30
2022-11-16T20:16:17.788Z,5.25
2022-11-16T20:18:45.078Z,5.64
2022-11-16T20:21:16.704Z,5.41
2022-11-16T20:23:45.350Z,5.53
2022-11-16T20:26:13.809Z,5.73
2022-11-16T20:28:42.625Z,5.77
2022-11-16T20:31:13.126Z,5.55
2022-11-16T20:33:40.359Z,5.77
2022-11-16T20:36:09.581Z,5.48
2022-11-16T20:38:37.771Z,5.45
2022-11-16T20:41:22.530Z,5.35
2022-11-16T20:43:53.939Z,5.31
2022-11-16T20:46:22.875Z,5.39
2022-11-16T20:48:49.790Z,5.23
2022-11-16T20:51:18.739Z,5.25
2022-11-16T20:53:47.016Z,5.41
2022-11-16T20:56:14.619Z,5.31
2022-11-16T20:58:41.287Z,5.37
2022-11-16T21:01:19.744Z,5.39
2022-11-16T21:03:47.846Z,5.47
2022-11-16T21:06:15.019Z,5.57
2022-11-16T21:08:42.021Z,5.49
2022-11-16T21:11:12.898Z,5.53
2022-11-16T21:13:58.498Z,5.70
2022-11-16T21:16:25.681Z,5.91
2022-11-16T21:18:54.325Z,5.58
2022-11-16T21:21:20.995Z,5.84
2022-11-16T21:23:55.052Z,6.10
2022-11-16T21:26:29.587Z,6.18
2022-11-16T21:28:58.595Z,6.08
2022-11-16T21:31:27.971Z,6.02
2022-11-16T21:33:54.605Z,6.18
2022-11-16T21:36:23.464Z,5.89
2022-11-16T21:38:51.805Z,6.19
2022-11-16T21:41:19.939Z,5.99
2022-11-16T21:43:46.855Z,6.02
2022-11-16T21:46:16.252Z,5.95
2022-11-16T21:48:43.151Z,5.83
2022-11-16T21:51:15.525Z,5.99
2022-11-16T21:53:42.735Z,6.18
2022-11-16T21:56:17.406Z,6.21
2022-11-16T21:58:44.495Z,6.29
2022-11-16T22:01:12.184Z,6.13
2022-11-16T22:03:39.211Z,6.10
2022-11-16T22:06:26.154Z,6.16
2022-11-16T22:08:52.857Z,6.18
2022-11-16T22:11:22.064Z,6.17
2022-11-16T22:13:49.842Z,6.13
2022-11-16T22:16:18.473Z,6.01
2022-11-16T22:18:45.446Z,6.04
2022-11-16T22:21:12.265Z,6.04
2022-11-16T22:23:39.155Z,6.02
2022-11-16T22:26:08.586Z,6.08
2022-11-16T22:28:36.515Z,5.82
2022-11-16T22:31:04.970Z,6.28
2022-11-16T22:33:33.187Z,6.35
2022-11-16T22:36:00.233Z,6.32
2022-11-16T22:38:27.230Z,5.87
2022-11-16T22:40:56.382Z,6.00
2022-11-16T22:43:25.337Z,5.94
2022-11-16T22:46:04.495Z,6.37
2022-11-16T22:48:36.732Z,6.33
2022-11-16T22:51:12.078Z,6.41
2022-11-16T22:53:38.808Z,6.48
2022-11-16T22:56:07.682Z,6.50
2022-11-16T22:58:35.599Z,6.42
2022-11-16T23:01:02.467Z,6.05
2022-11-16T23:03:29.483Z,6.45
2022-11-16T23:05:56.180Z,6.71
2022-11-16T23:08:24.785Z,6.61
2022-11-16T23:11:22.257Z,6.41
2022-11-16T23:14:07.806Z,6.54
2022-11-16T23:16:34.977Z,6.21
2022-11-16T23:19:01.801Z,6.47
2022-11-16T23:21:47.142Z,6.15
2022-11-16T23:24:33.834Z,6.13
2022-11-16T23:27:22.065Z,6.38
2022-11-16T23:29:49.182Z,6.64
2022-11-16T23:32:16.047Z,6.66
2022-11-16T23:34:42.641Z,6.60
2022-11-16T23:37:09.386Z,6.51
2022-11-16T23:39:35.986Z,6.69
2022-11-16T23:42:21.384Z,6.71
2022-11-16T23:44:48.113Z,6.39
2022-11-16T23:47:14.837Z,6.42
2022-11-16T23:49:41.491Z,6.68
2022-11-16T23:52:08.123Z,6.75
2022-11-16T23:54:34.777Z,6.76
2022-11-16T23:57:01.443Z,6.82
2022-11-16T23:59:28.095Z,6.68
